Time;durP1;ratioP1;P1;durP2;ratioP2;P2;SDS_P1;SDS_P2;PMS_P1;PMS_P2;Temp;Humidity;BMP_temperature;BMP_pressure;BME280_temperature;BME280_humidity;BME280_pressure;Samples;Min_cycle;Max_cycle;Signal;HPM_P1;HPM_P2
2022/01/13 00:00:18;;;;;;;;;;;;;;;-0.90;56.19;96529.41;5076022;28;1047;-49
2022/01/13 00:02:45;;;;;;;;;;;;;;;-0.90;56.48;96527.66;5075660;28;1104;-49
2022/01/13 00:05:11;;;;;;;;;;;;;;;-0.82;56.02;96525.56;5075799;28;1067;-48
2022/01/13 00:07:37;;;;;;;;;;;;;;;-0.88;56.10;96535.47;5075474;28;1910;-48
2022/01/13 00:10:04;;;;;;;;;;;;;;;-0.92;56.82;96531.25;5075702;28;1037;-49
2022/01/13 00:12:35;;;;;;;;;;;;;;;-0.89;57.39;96537.25;5075675;28;977;-49
2022/01/13 00:15:23;;;;;;;;;;;;;;;-0.89;57.14;96534.63;5075758;28;1020;-48
2022/01/13 00:18:03;;;;;;;;;;;;;;;-0.79;56.86;96540.38;5075012;28;1794;-49
2022/01/13 00:20:37;;;;;;;;;;;;;;;-0.70;56.01;96534.78;5075457;28;1064;-49
2022/01/13 00:25:53;;;;;;;;;;;;;;;-0.82;56.77;96538.72;5075439;28;1029;-49
2022/01/13 00:28:21;;;;;;;;;;;;;;;-0.75;56.73;96541.97;5074809;28;1934;-48
2022/01/13 00:30:51;;;;;;;;;;;;;;;-0.76;56.75;96542.88;5075274;28;1023;-49
2022/01/13 00:33:23;;;;;;;;;;;;;;;-0.83;57.02;96536.16;5075320;28;976;-49
2022/01/13 00:35:49;;;;;;;;;;;;;;;-0.81;57.16;96552.72;5075379;28;1205;-49
2022/01/13 00:38:15;;;;;;;;;;;;;;;-0.86;56.56;96549.41;5074797;28;1085;-49
2022/01/13 00:40:41;;;;;;;;;;;;;;;-0.85;55.12;96551.13;5075141;28;1097;-49
2022/01/13 00:43:07;;;;;;;;;;;;;;;-0.92;56.23;96565.38;5074785;28;1037;-49
2022/01/13 00:45:33;;;;;;;;;;;;;;;-0.88;56.01;96566.97;5075012;28;1016;-48
2022/01/13 00:47:59;;;;;;;;;;;;;;;-0.77;55.39;96562.19;5074773;28;1987;-49
2022/01/13 00:50:25;;;;;;;;;;;;;;;-0.72;56.11;96569.88;5075016;28;1005;-49
2022/01/13 00:52:51;;;;;;;;;;;;;;;-0.89;56.60;96571.38;5074712;28;2000;-49
2022/01/13 00:55:21;;;;;;;;;;;;;;;-0.92;56.88;96568.88;5074758;28;1309;-48
2022/01/13 00:57:47;;;;;;;;;;;;;;;-0.82;56.56;96564.97;5074332;28;1127;-49
2022/01/13 01:00:14;;;;;;;;;;;;;;;-0.77;56.42;96570.06;5074629;28;1037;-48
2022/01/13 01:02:40;;;;;;;;;;;;;;;-0.84;57.13;96565.94;5073365;28;1308;-49
2022/01/13 01:05:06;;;;;;;;;;;;;;;-0.94;57.08;96562.81;5074827;28;1028;-49
2022/01/13 01:07:32;;;;;;;;;;;;;;;-0.84;56.88;96571.22;5074492;28;1930;-49
2022/01/13 01:09:58;;;;;;;;;;;;;;;-0.74;55.76;96569.97;5074539;28;1085;-48
2022/01/13 01:12:24;;;;;;;;;;;;;;;-0.95;56.41;96574.22;5074194;28;1064;-48
2022/01/13 01:14:56;;;;;;;;;;;;;;;-0.97;57.15;96570.78;5074400;28;1012;-49
2022/01/13 01:17:22;;;;;;;;;;;;;;;-0.80;55.96;96572.78;5074416;28;1055;-49
2022/01/13 01:19:49;;;;;;;;;;;;;;;-0.87;56.34;96582.69;5074341;28;1088;-49
2022/01/13 01:27:27;;;;;;;;;;;;;;;-0.96;56.69;96569.03;5073177;28;1980;-49
2022/01/13 01:29:59;;;;;;;;;;;;;;;-0.85;55.94;96574.75;5074012;28;1088;-48
2022/01/13 01:32:26;;;;;;;;;;;;;;;-0.92;56.38;96571.50;5073879;28;1092;-49
2022/01/13 01:34:56;;;;;;;;;;;;;;;-0.95;56.13;96571.59;5074045;28;1190;-48
2022/01/13 01:37:27;;;;;;;;;;;;;;;-0.86;55.76;96573.88;5073640;28;1247;-48
2022/01/13 01:39:53;;;;;;;;;;;;;;;-0.91;56.24;96583.72;5074372;28;1096;-48
2022/01/13 01:42:20;;;;;;;;;;;;;;;-0.93;56.03;96579.41;5073795;28;985;-48
2022/01/13 01:44:48;;;;;;;;;;;;;;;-0.96;55.61;96590.06;5074065;28;1017;-48
2022/01/13 01:47:15;;;;;;;;;;;;;;;-1.07;56.26;96590.44;5073827;28;1975;-48
2022/01/13 01:49:43;;;;;;;;;;;;;;;-1.10;56.39;96583.53;5073751;28;1037;-48
2022/01/13 01:52:10;;;;;;;;;;;;;;;-1.03;56.26;96594.66;5073591;28;1077;-48
2022/01/13 01:54:36;;;;;;;;;;;;;;;-1.09;56.28;96590.47;5073514;28;1089;-48
2022/01/13 01:57:03;;;;;;;;;;;;;;;-0.99;55.91;96589.25;5073824;28;1053;-48
2022/01/13 01:59:32;;;;;;;;;;;;;;;-0.93;55.78;96592.53;5073353;28;1068;-49
2022/01/13 02:01:59;;;;;;;;;;;;;;;-0.97;55.74;96597.03;5073728;28;1008;-49
2022/01/13 02:04:26;;;;;;;;;;;;;;;-1.09;56.07;96605.38;5073305;28;1038;-49
2022/01/13 02:06:54;;;;;;;;;;;;;;;-1.09;55.57;96611.47;5073456;28;1997;-48
2022/01/13 02:09:20;;;;;;;;;;;;;;;-1.21;55.60;96606.69;5073256;28;1088;-48
2022/01/13 02:11:51;;;;;;;;;;;;;;;-1.19;55.01;96600.44;5073591;28;1080;-49
2022/01/13 02:16:57;;;;;;;;;;;;;;;-1.27;55.10;96592.00;5073610;28;957;-48
2022/01/13 02:19:26;;;;;;;;;;;;;;;-1.40;56.32;96591.56;5073164;28;981;-48
2022/01/13 02:21:52;;;;;;;;;;;;;;;-1.39;55.89;96597.66;5073615;28;1023;-48
2022/01/13 02:24:18;;;;;;;;;;;;;;;-1.26;55.72;96593.69;5073048;28;1061;-49
2022/01/13 02:26:44;;;;;;;;;;;;;;;-1.24;55.54;96601.53;5073359;28;1052;-49
2022/01/13 02:29:10;;;;;;;;;;;;;;;-1.40;55.95;96591.56;5072849;28;1902;-48
2022/01/13 02:31:37;;;;;;;;;;;;;;;-1.47;56.41;96597.94;5073243;28;1092;-48
2022/01/13 02:34:03;;;;;;;;;;;;;;;-1.47;56.05;96594.47;5073041;28;1000;-48
2022/01/13 02:36:30;;;;;;;;;;;;;;;-1.53;55.93;96597.28;5073151;28;1154;-49
2022/01/13 02:38:58;;;;;;;;;;;;;;;-1.54;56.04;96595.56;5072807;28;1057;-48
2022/01/13 02:41:24;;;;;;;;;;;;;;;-1.42;55.83;96596.00;5073159;28;1096;-48
2022/01/13 02:43:53;;;;;;;;;;;;;;;-1.43;55.77;96596.91;5073106;28;1048;-48
2022/01/13 02:46:29;;;;;;;;;;;;;;;-1.57;55.73;96593.91;5073117;28;1021;-48
2022/01/13 02:48:55;;;;;;;;;;;;;;;-1.51;55.88;96598.94;5072852;28;1906;-49
2022/01/13 02:51:21;;;;;;;;;;;;;;;-1.39;55.38;96595.88;5073025;28;1072;-49
2022/01/13 02:53:47;;;;;;;;;;;;;;;-1.42;55.35;96598.63;5072857;28;929;-48
2022/01/13 02:56:14;;;;;;;;;;;;;;;-1.49;55.13;96597.13;5072974;28;1044;-49
2022/01/13 02:58:40;;;;;;;;;;;;;;;-1.45;55.25;96608.38;5072772;28;1338;-49
2022/01/13 03:01:06;;;;;;;;;;;;;;;-1.48;54.98;96601.47;5073051;28;993;-49
2022/01/13 03:03:34;;;;;;;;;;;;;;;-1.55;55.07;96602.59;5072773;28;1047;-48
2022/01/13 03:06:07;;;;;;;;;;;;;;;-1.53;55.08;96587.66;5072931;28;1966;-49
2022/01/13 03:08:33;;;;;;;;;;;;;;;-1.59;54.86;96599.22;5072816;28;1997;-49
2022/01/13 03:10:59;;;;;;;;;;;;;;;-1.62;54.75;96594.06;5072923;28;1044;-48
2022/01/13 03:13:28;;;;;;;;;;;;;;;-1.73;55.43;96593.56;5072784;28;1025;-48
2022/01/13 03:15:54;;;;;;;;;;;;;;;-1.62;55.09;96587.97;5072633;28;1033;-48
2022/01/13 03:18:20;;;;;;;;;;;;;;;-1.60;55.13;96601.88;5072959;28;1012;-48
2022/01/13 03:20:46;;;;;;;;;;;;;;;-1.74;55.12;96599.72;5072805;28;1039;-48
2022/01/13 03:23:17;;;;;;;;;;;;;;;-1.76;55.50;96593.66;5072901;28;1013;-48
2022/01/13 03:25:47;;;;;;;;;;;;;;;-1.76;55.64;96601.53;5072519;28;1108;-48
2022/01/13 03:28:28;;;;;;;;;;;;;;;-1.80;55.40;96592.91;5072440;28;2001;-49
2022/01/13 03:30:55;;;;;;;;;;;;;;;-1.61;54.55;96587.91;5072811;28;1041;-49
2022/01/13 03:33:21;;;;;;;;;;;;;;;-1.55;54.47;96591.25;5072743;28;1060;-48
2022/01/13 03:35:47;;;;;;;;;;;;;;;-1.70;55.13;96593.47;5072560;28;1153;-48
2022/01/13 03:38:13;;;;;;;;;;;;;;;-1.83;55.10;96600.88;5072418;28;1207;-48
2022/01/13 03:40:39;;;;;;;;;;;;;;;-1.89;55.71;96610.72;5072467;28;1538;-48
2022/01/13 03:43:06;;;;;;;;;;;;;;;-1.96;55.30;96616.13;5072491;28;1121;-49
2022/01/13 03:45:32;;;;;;;;;;;;;;;-1.77;55.40;96608.53;5072641;28;973;-48
2022/01/13 03:47:59;;;;;;;;;;;;;;;-1.79;55.51;96618.22;5072677;28;1909;-48
2022/01/13 03:50:25;;;;;;;;;;;;;;;-1.79;55.29;96612.97;5072645;28;994;-48
2022/01/13 03:52:57;;;;;;;;;;;;;;;-1.92;55.81;96614.28;5075916;28;1048;-48
2022/01/13 03:55:35;;;;;;;;;;;;;;;-1.94;55.88;96616.09;5075667;28;997;-48
2022/01/13 03:58:20;;;;;;;;;;;;;;;-1.84;55.12;96614.91;5076025;28;1013;-49
2022/01/13 04:00:48;;;;;;;;;;;;;;;-1.92;55.52;96623.91;5076099;28;1049;-49
2022/01/13 04:03:14;;;;;;;;;;;;;;;-1.93;54.91;96623.06;5075893;28;1058;-48
2022/01/13 04:06:07;;;;;;;;;;;;;;;-1.97;55.11;96614.44;5075729;28;973;-48
2022/01/13 04:08:33;;;;;;;;;;;;;;;-1.96;55.25;96624.00;5076016;28;1914;-48
2022/01/13 04:11:11;;;;;;;;;;;;;;;-2.03;54.92;96621.63;5075703;28;1056;-49
2022/01/13 04:16:09;;;;;;;;;;;;;;;-1.88;54.90;96629.00;5075376;28;1041;-49
2022/01/13 04:18:35;;;;;;;;;;;;;;;-1.90;54.53;96627.34;5075522;28;1096;-49
2022/01/13 04:21:01;;;;;;;;;;;;;;;-1.83;54.67;96629.72;5075640;28;1039;-48
2022/01/13 04:23:27;;;;;;;;;;;;;;;-1.93;54.57;96622.22;5075657;28;1036;-48
2022/01/13 04:25:53;;;;;;;;;;;;;;;-2.04;54.79;96630.41;5075344;28;1054;-48
2022/01/13 04:28:26;;;;;;;;;;;;;;;-2.09;55.21;96627.91;5075030;28;1910;-48
2022/01/13 04:31:00;;;;;;;;;;;;;;;-2.07;55.12;96630.50;5075205;28;1870;-48
2022/01/13 04:33:27;;;;;;;;;;;;;;;-2.21;56.03;96642.25;5075235;28;1084;-48
2022/01/13 04:35:54;;;;;;;;;;;;;;;-2.14;55.46;96644.69;5075082;28;1126;-48
2022/01/13 04:38:20;;;;;;;;;;;;;;;-2.12;55.94;96653.38;5075046;28;1077;-49
2022/01/13 04:40:49;;;;;;;;;;;;;;;-2.03;55.45;96664.44;5074902;28;1077;-49
2022/01/13 04:43:16;;;;;;;;;;;;;;;-1.91;54.96;96675.47;5075059;28;1045;-48
2022/01/13 04:45:42;;;;;;;;;;;;;;;-1.90;55.45;96680.63;5074917;28;1036;-49
2022/01/13 04:48:08;;;;;;;;;;;;;;;-1.88;54.96;96670.94;5074920;28;1985;-49
2022/01/13 04:50:35;;;;;;;;;;;;;;;-2.02;55.85;96676.63;5074992;28;1001;-49
2022/01/13 04:53:01;;;;;;;;;;;;;;;-2.01;55.75;96686.22;5073912;28;973;-49
2022/01/13 04:55:31;;;;;;;;;;;;;;;-2.10;55.42;96685.66;5074624;28;1047;-49
2022/01/13 04:57:59;;;;;;;;;;;;;;;-2.10;55.60;96685.66;5074684;28;989;-49
2022/01/13 05:00:26;;;;;;;;;;;;;;;-2.11;55.18;96679.53;5074487;28;1058;-48
2022/01/13 05:02:52;;;;;;;;;;;;;;;-2.01;54.98;96683.59;5074813;28;981;-48
2022/01/13 05:05:19;;;;;;;;;;;;;;;-2.05;55.11;96684.59;5074423;28;1029;-48
2022/01/13 05:07:45;;;;;;;;;;;;;;;-2.17;55.54;96679.72;5074602;28;1914;-49
2022/01/13 05:10:11;;;;;;;;;;;;;;;-2.33;56.20;96676.72;5074515;28;1053;-48
2022/01/13 05:12:43;;;;;;;;;;;;;;;-2.31;56.08;96680.16;5074386;28;1053;-48
2022/01/13 05:15:14;;;;;;;;;;;;;;;-2.26;55.51;96672.13;5074408;28;1028;-48
2022/01/13 05:20:26;;;;;;;;;;;;;;;-2.24;55.88;96686.91;5074502;28;1017;-48
2022/01/13 05:22:52;;;;;;;;;;;;;;;-2.39;55.96;96677.75;5074311;28;977;-49
2022/01/13 05:25:19;;;;;;;;;;;;;;;-2.31;56.09;96684.53;5074051;28;1050;-48
2022/01/13 05:27:45;;;;;;;;;;;;;;;-2.26;55.76;96683.47;5073688;28;1887;-48
2022/01/13 05:30:12;;;;;;;;;;;;;;;-2.23;55.17;96691.25;5074012;28;1053;-48
2022/01/13 05:32:38;;;;;;;;;;;;;;;-2.39;55.94;96688.22;5074062;28;1242;-48
2022/01/13 05:35:04;;;;;;;;;;;;;;;-2.43;56.14;96706.69;5073946;28;1157;-48
2022/01/13 05:37:30;;;;;;;;;;;;;;;-2.46;55.49;96701.56;5073726;28;1211;-49
2022/01/13 05:39:57;;;;;;;;;;;;;;;-2.34;55.29;96697.72;5072753;28;1057;-48
2022/01/13 05:42:23;;;;;;;;;;;;;;;-2.25;55.45;96702.69;5073561;28;1057;-49
2022/01/13 05:44:50;;;;;;;;;;;;;;;-2.24;55.03;96707.88;5073846;28;1120;-49
2022/01/13 05:47:16;;;;;;;;;;;;;;;-2.37;54.88;96698.66;5073680;28;1914;-49
2022/01/13 05:49:43;;;;;;;;;;;;;;;-2.49;55.91;96702.47;5073924;28;1048;-48
2022/01/13 05:52:10;;;;;;;;;;;;;;;-2.55;56.15;96705.28;5073602;28;957;-48
2022/01/13 05:54:36;;;;;;;;;;;;;;;-2.53;56.10;96705.25;5073530;28;1068;-48
2022/01/13 05:57:02;;;;;;;;;;;;;;;-2.56;56.04;96714.06;5073474;28;1207;-49
2022/01/13 05:59:29;;;;;;;;;;;;;;;-2.53;55.82;96720.94;5073386;28;1052;-49
2022/01/13 06:01:55;;;;;;;;;;;;;;;-2.53;55.43;96723.56;5073597;28;1051;-49
2022/01/13 06:04:21;;;;;;;;;;;;;;;-2.57;55.21;96736.75;5073472;28;1100;-48
2022/01/13 06:06:47;;;;;;;;;;;;;;;-2.69;55.56;96746.69;5073425;28;973;-48
2022/01/13 06:09:13;;;;;;;;;;;;;;;-2.84;56.46;96745.38;5073236;28;1984;-49
2022/01/13 06:11:44;;;;;;;;;;;;;;;-2.72;56.25;96752.03;5073238;28;1065;-49
2022/01/13 06:14:10;;;;;;;;;;;;;;;-2.86;56.95;96766.34;5073180;28;1033;-49
2022/01/13 06:16:36;;;;;;;;;;;;;;;-2.70;55.73;96765.94;5073455;28;965;-49
2022/01/13 06:19:02;;;;;;;;;;;;;;;-2.66;55.84;96768.41;5072257;28;969;-49
2022/01/13 06:21:28;;;;;;;;;;;;;;;-2.73;55.75;96776.47;5073387;28;1044;-48
2022/01/13 06:23:54;;;;;;;;;;;;;;;-2.79;55.65;96769.66;5073080;28;1905;-48
2022/01/13 06:26:20;;;;;;;;;;;;;;;-2.68;55.34;96770.22;5073194;28;1075;-48
2022/01/13 06:28:46;;;;;;;;;;;;;;;-2.64;55.02;96771.84;5072845;28;2000;-48
2022/01/13 06:31:12;;;;;;;;;;;;;;;-2.57;54.86;96768.16;5073401;28;1028;-49
2022/01/13 06:33:38;;;;;;;;;;;;;;;-2.59;55.22;96776.97;5073063;28;1061;-49
2022/01/13 06:36:04;;;;;;;;;;;;;;;-2.46;54.51;96780.13;5072068;28;1170;-48
2022/01/13 06:38:30;;;;;;;;;;;;;;;-2.30;54.00;96775.31;5072844;28;1367;-49
2022/01/13 06:40:56;;;;;;;;;;;;;;;-2.28;54.37;96769.13;5073170;28;985;-49
2022/01/13 06:43:22;;;;;;;;;;;;;;;-2.20;54.06;96766.28;5073066;28;993;-49
2022/01/13 06:45:49;;;;;;;;;;;;;;;-2.01;53.47;96771.84;5073110;28;1092;-48
2022/01/13 06:48:15;;;;;;;;;;;;;;;-1.79;52.92;96779.94;5073080;28;1918;-49
2022/01/13 06:50:41;;;;;;;;;;;;;;;-1.73;52.19;96774.50;5073201;28;1009;-47
2022/01/13 06:53:07;;;;;;;;;;;;;;;-1.60;51.30;96773.22;5072875;28;1055;-48
2022/01/13 06:55:33;;;;;;;;;;;;;;;-1.74;51.60;96774.59;5072881;28;1033;-48
2022/01/13 06:57:59;;;;;;;;;;;;;;;2.37;44.82;96777.31;5072639;28;1037;-48
2022/01/13 07:00:25;;;;;;;;;;;;;;;6.61;36.01;96777.19;5072956;28;1100;-49
2022/01/13 07:02:53;;;;;;;;;;;;;;;7.50;33.34;96773.22;5072985;28;1013;-49
2022/01/13 07:05:19;;;;;;;;;;;;;;;6.52;34.43;96785.72;5073113;28;1068;-49
2022/01/13 07:07:45;;;;;;;;;;;;;;;3.60;37.61;96784.56;5072596;28;1914;-49
2022/01/13 07:10:12;;;;;;;;;;;;;;;1.31;42.26;96794.25;5072640;28;1041;-49
2022/01/13 07:12:38;;;;;;;;;;;;;;;1.03;43.73;96793.69;5073066;28;1033;-49
2022/01/13 07:15:05;;;;;;;;;;;;;;;-0.18;46.36;96793.94;5072886;28;1057;-49
2022/01/13 07:17:31;;;;;;;;;;;;;;;-0.74;47.46;96795.88;5072621;28;1037;-49
2022/01/13 07:19:57;;;;;;;;;;;;;;;-1.05;48.13;96803.88;5072964;28;969;-49
2022/01/13 07:22:23;;;;;;;;;;;;;;;-1.34;49.09;96804.84;5072643;28;1060;-49
2022/01/13 07:24:49;;;;;;;;;;;;;;;-1.33;49.03;96817.03;5072480;28;1065;-48
2022/01/13 07:27:15;;;;;;;;;;;;;;;-1.51;49.55;96808.81;5074963;28;1910;-48
2022/01/13 07:29:45;;;;;;;;;;;;;;;-1.46;49.63;96811.28;5076545;28;949;-49
2022/01/13 07:32:11;;;;;;;;;;;;;;;-0.83;48.76;96818.03;5076471;28;969;-49
2022/01/13 07:34:38;;;;;;;;;;;;;;;0.88;45.96;96819.72;5076214;28;1085;-49
2022/01/13 07:37:04;;;;;;;;;;;;;;;1.85;43.01;96818.31;5076224;28;1185;-49
2022/01/13 07:39:31;;;;;;;;;;;;;;;1.58;43.16;96822.16;5075893;28;1115;-49
2022/01/13 07:41:57;;;;;;;;;;;;;;;1.21;43.93;96832.44;5076516;28;1137;-49
2022/01/13 07:44:23;;;;;;;;;;;;;;;1.19;43.77;96813.19;5076005;28;1120;-49
2022/01/13 07:46:49;;;;;;;;;;;;;;;1.17;44.01;96825.59;5076304;28;1048;-49
2022/01/13 07:49:15;;;;;;;;;;;;;;;1.25;44.44;96830.53;5075929;28;1984;-49
2022/01/13 07:51:41;;;;;;;;;;;;;;;0.85;43.97;96832.16;5076150;28;1045;-49
2022/01/13 07:54:07;;;;;;;;;;;;;;;0.46;44.52;96825.75;5075639;28;1976;-49
2022/01/13 07:56:34;;;;;;;;;;;;;;;0.36;45.32;96833.13;5076285;28;1016;-48
2022/01/13 07:59:00;;;;;;;;;;;;;;;0.33;45.73;96829.75;5075780;28;973;-49
2022/01/13 08:01:26;;;;;;;;;;;;;;;0.37;44.63;96823.44;5075820;28;1111;-48
2022/01/13 08:03:52;;;;;;;;;;;;;;;0.33;45.69;96832.38;5075781;28;1016;-48
2022/01/13 08:06:18;;;;;;;;;;;;;;;0.36;45.54;96833.13;5075754;28;1116;-48
2022/01/13 08:08:44;;;;;;;;;;;;;;;0.66;45.35;96838.13;5075424;28;1910;-48
2022/01/13 08:11:10;;;;;;;;;;;;;;;0.71;45.26;96832.69;5108336;28;1074;-48
2022/01/13 08:13:36;;;;;;;;;;;;;;;0.53;45.02;96842.16;5075764;28;1016;-48
2022/01/13 08:16:07;;;;;;;;;;;;;;;0.28;44.97;96839.59;5075668;28;1065;-49
2022/01/13 08:21:18;;;;;;;;;;;;;;;-0.09;46.01;96833.91;5075429;28;996;-48
2022/01/13 08:23:44;;;;;;;;;;;;;;;-0.26;45.93;96831.88;5075454;28;1051;-49
2022/01/13 08:26:11;;;;;;;;;;;;;;;-0.12;46.35;96838.41;5075375;28;1081;-48
2022/01/13 08:28:37;;;;;;;;;;;;;;;0.01;45.63;96837.06;5075002;28;1989;-49
2022/01/13 08:31:06;;;;;;;;;;;;;;;-0.16;45.89;96847.31;5075433;28;1036;-48
2022/01/13 08:33:32;;;;;;;;;;;;;;;-0.11;46.60;96848.03;5075296;28;1052;-48
2022/01/13 08:35:58;;;;;;;;;;;;;;;-0.43;46.39;96842.09;5075083;28;1209;-48
2022/01/13 08:38:25;;;;;;;;;;;;;;;-0.10;46.45;96847.94;5074522;28;1097;-48
2022/01/13 08:40:53;;;;;;;;;;;;;;;-0.15;46.23;96849.00;5075188;28;1051;-48
2022/01/13 08:43:20;;;;;;;;;;;;;;;-0.14;45.66;96853.38;5075182;28;1031;-48
2022/01/13 08:45:47;;;;;;;;;;;;;;;-0.51;46.28;96857.25;5075053;28;962;-49
2022/01/13 08:48:13;;;;;;;;;;;;;;;-0.68;47.11;96861.31;5074899;28;1914;-48
2022/01/13 08:50:39;;;;;;;;;;;;;;;-0.50;46.44;96864.25;5074815;28;969;-48
2022/01/13 08:53:06;;;;;;;;;;;;;;;-0.12;46.05;96873.44;5075113;28;1059;-48
2022/01/13 08:55:32;;;;;;;;;;;;;;;-0.03;45.69;96877.53;5074730;28;1061;-49
2022/01/13 08:57:58;;;;;;;;;;;;;;;0.21;45.59;96870.53;5074852;28;1040;-48
2022/01/13 09:00:25;;;;;;;;;;;;;;;0.05;45.04;96874.63;5074660;28;977;-48
2022/01/13 09:02:51;;;;;;;;;;;;;;;0.24;45.27;96875.66;5074732;28;1175;-48
2022/01/13 09:05:17;;;;;;;;;;;;;;;0.37;44.32;96865.56;5074428;28;1100;-49
2022/01/13 09:07:43;;;;;;;;;;;;;;;1.55;43.24;96870.59;5074730;28;2011;-49
2022/01/13 09:10:11;;;;;;;;;;;;;;;3.62;39.28;96864.69;5074494;28;1060;-48
2022/01/13 09:12:37;;;;;;;;;;;;;;;5.05;35.87;96855.38;5074538;28;1057;-49
2022/01/13 09:15:15;;;;;;;;;;;;;;;5.78;34.79;96859.22;5074401;28;965;-49
2022/01/13 09:17:43;;;;;;;;;;;;;;;5.90;33.74;96855.84;5074429;28;1036;-49
2022/01/13 09:20:10;;;;;;;;;;;;;;;6.99;32.06;96861.66;5074375;28;973;-49
2022/01/13 09:22:36;;;;;;;;;;;;;;;8.54;30.30;96847.88;5074428;28;1067;-49
2022/01/13 09:25:03;;;;;;;;;;;;;;;10.50;27.07;96850.41;5074134;28;1033;-48
2022/01/13 09:27:29;;;;;;;;;;;;;;;10.09;27.35;96849.06;5074014;28;1913;-47
2022/01/13 09:29:55;;;;;;;;;;;;;;;9.97;27.98;96857.03;5074003;28;1057;-47
2022/01/13 09:32:22;;;;;;;;;;;;;;;10.74;25.82;96851.19;5073968;28;1052;-47
2022/01/13 09:34:48;;;;;;;;;;;;;;;11.11;25.38;96850.91;5074087;28;1153;-47
2022/01/13 09:37:14;;;;;;;;;;;;;;;11.80;25.32;96855.19;5073703;28;1081;-48
2022/01/13 09:39:40;;;;;;;;;;;;;;;13.23;23.21;96852.88;5074089;28;1091;-47
2022/01/13 09:42:09;;;;;;;;;;;;;;;14.32;21.82;96834.91;5074032;28;962;-47
2022/01/13 09:44:35;;;;;;;;;;;;;;;15.39;20.67;96833.75;5073967;28;1081;-47
2022/01/13 09:47:04;;;;;;;;;;;;;;;16.47;19.19;96820.34;5073778;28;994;-47
2022/01/13 09:49:30;;;;;;;;;;;;;;;17.15;18.96;96823.19;5073221;28;1984;-49
2022/01/13 09:51:57;;;;;;;;;;;;;;;17.90;18.00;96821.59;5073778;28;1047;-46
2022/01/13 09:54:23;;;;;;;;;;;;;;;18.01;17.65;96823.16;5073709;28;1987;-49
2022/01/13 09:56:49;;;;;;;;;;;;;;;18.50;17.95;96813.19;5073654;28;992;-48
2022/01/13 09:59:15;;;;;;;;;;;;;;;18.83;17.10;96817.75;5073904;28;1084;-48
2022/01/13 10:01:41;;;;;;;;;;;;;;;18.74;16.76;96803.31;5073706;28;977;-47
2022/01/13 10:04:07;;;;;;;;;;;;;;;19.10;17.11;96797.50;5073744;28;1072;-49
2022/01/13 10:06:40;;;;;;;;;;;;;;;18.68;16.50;96798.59;5073504;28;1068;-48
2022/01/13 10:09:06;;;;;;;;;;;;;;;19.30;16.15;96793.38;5073625;28;1972;-48
2022/01/13 10:11:56;;;;;;;;;;;;;;;19.06;16.35;96785.31;5072143;28;1197;-49
2022/01/13 10:16:52;;;;;;;;;;;;;;;17.78;16.89;96776.91;5073207;28;1768;-49
2022/01/13 10:19:34;;;;;;;;;;;;;;;17.00;17.90;96770.75;5073278;28;1053;-47
2022/01/13 10:22:10;;;;;;;;;;;;;;;15.48;18.98;96762.78;5073125;28;1991;-47
2022/01/13 10:24:38;;;;;;;;;;;;;;;12.26;22.54;96757.47;5073381;28;1014;-47
2022/01/13 10:27:20;;;;;;;;;;;;;;;8.75;26.65;96755.66;5073211;28;1096;-48
2022/01/13 10:29:47;;;;;;;;;;;;;;;7.87;28.03;96734.28;5073325;28;1084;-47
2022/01/13 10:32:15;;;;;;;;;;;;;;;7.82;28.44;96725.78;5073122;28;1039;-47
2022/01/13 10:34:42;;;;;;;;;;;;;;;9.58;25.75;96714.00;5073279;28;1096;-47
2022/01/13 10:37:11;;;;;;;;;;;;;;;13.48;21.34;96715.34;5052561;28;1101;-48
2022/01/13 10:39:44;;;;;;;;;;;;;;;15.69;18.81;96705.84;5053413;28;1032;-48
2022/01/13 10:43:06;;;;;;;;;;;;;;;17.71;17.53;96717.19;5053032;28;1020;-47
2022/01/13 10:44:59;;;;;;;;;;;;;;;18.67;16.48;96723.78;5045197;28;1889;-48
2022/01/13 10:47:26;;;;;;;;;;;;;;;18.51;15.58;96716.50;5052766;28;1991;-48
2022/01/13 10:49:52;;;;;;;;;;;;;;;18.14;16.19;96707.94;5053327;28;961;-48
2022/01/13 10:52:26;;;;;;;;;;;;;;;16.57;17.65;96702.28;5052674;28;1057;-47
2022/01/13 10:55:00;;;;;;;;;;;;;;;12.47;21.41;96697.59;5053094;28;1104;-47
2022/01/13 10:57:26;;;;;;;;;;;;;;;8.95;25.41;96689.34;5052644;28;965;-47
2022/01/13 10:59:52;;;;;;;;;;;;;;;7.60;28.26;96684.63;5053385;28;1767;-47
2022/01/13 11:02:19;;;;;;;;;;;;;;;6.91;28.38;96683.13;5056752;28;1064;-47
2022/01/13 11:04:46;;;;;;;;;;;;;;;6.06;28.92;96673.44;5057226;28;1035;-47
2022/01/13 11:07:23;;;;;;;;;;;;;;;5.38;30.61;96659.91;5056776;28;1052;-47
2022/01/13 11:09:53;;;;;;;;;;;;;;;5.28;32.16;96655.16;5057065;28;1041;-48
2022/01/13 11:12:38;;;;;;;;;;;;;;;5.57;31.68;96665.81;5056669;28;956;-48
2022/01/13 11:15:11;;;;;;;;;;;;;;;5.39;31.15;96662.47;5057080;28;1044;-49
2022/01/13 11:17:38;;;;;;;;;;;;;;;5.46;32.88;96660.28;5056645;28;1038;-49
2022/01/13 11:20:06;;;;;;;;;;;;;;;5.33;31.12;96654.03;5056686;28;1049;-49
2022/01/13 11:22:35;;;;;;;;;;;;;;;5.08;32.32;96653.72;5056515;28;1052;-49
2022/01/13 11:25:02;;;;;;;;;;;;;;;4.80;32.15;96665.06;5056692;28;996;-49
2022/01/13 11:27:29;;;;;;;;;;;;;;;4.79;32.29;96666.00;5056051;28;1914;-49
2022/01/13 11:29:56;;;;;;;;;;;;;;;4.83;32.03;96656.91;5056535;28;1064;-49
2022/01/13 11:32:22;;;;;;;;;;;;;;;4.98;32.89;96662.28;5056268;28;1037;-49
2022/01/13 11:34:48;;;;;;;;;;;;;;;4.92;33.53;96667.94;5057089;28;1241;-49
2022/01/13 11:37:15;;;;;;;;;;;;;;;4.77;33.21;96667.88;5074774;28;1251;-49
2022/01/13 11:39:42;;;;;;;;;;;;;;;4.40;34.01;96661.16;5076293;28;1151;-49
2022/01/13 11:42:09;;;;;;;;;;;;;;;3.81;34.25;96663.53;5076113;28;1120;-49
2022/01/13 11:44:36;;;;;;;;;;;;;;;3.52;34.31;96665.94;5076443;28;1199;-50
2022/01/13 11:47:08;;;;;;;;;;;;;;;3.27;35.22;96667.22;5076160;28;974;-50
2022/01/13 11:49:43;;;;;;;;;;;;;;;3.11;36.50;96663.63;5076270;28;1943;-49
2022/01/13 11:52:28;;;;;;;;;;;;;;;3.19;36.64;96669.41;5075799;28;961;-49
2022/01/13 11:54:54;;;;;;;;;;;;;;;3.27;35.69;96643.41;5076344;28;961;-49
2022/01/13 11:57:22;;;;;;;;;;;;;;;2.98;35.58;96639.66;5075676;28;1079;-49
2022/01/13 11:59:57;;;;;;;;;;;;;;;2.87;36.34;96618.19;5076149;28;982;-49
2022/01/13 12:02:26;;;;;;;;;;;;;;;2.59;37.47;96630.13;5075854;28;965;-49
2022/01/13 12:05:17;;;;;;;;;;;;;;;2.50;38.02;96630.59;5075915;28;1017;-49
2022/01/13 12:07:43;;;;;;;;;;;;;;;2.71;38.01;96637.47;5068180;28;1906;-49
2022/01/13 12:10:11;;;;;;;;;;;;;;;2.76;37.55;96631.94;5075751;28;1897;-49
2022/01/13 12:12:37;;;;;;;;;;;;;;;2.83;36.20;96621.94;5074816;28;1028;-49
2022/01/13 12:15:17;;;;;;;;;;;;;;;2.87;36.54;96628.75;5075795;28;985;-49
2022/01/13 12:17:59;;;;;;;;;;;;;;;2.88;36.68;96620.78;5075767;28;985;-49
2022/01/13 12:20:25;;;;;;;;;;;;;;;2.57;36.75;96628.50;5075421;28;1326;-49
2022/01/13 12:23:04;;;;;;;;;;;;;;;2.31;36.31;96620.06;5075542;28;1060;-49
2022/01/13 12:25:31;;;;;;;;;;;;;;;2.41;38.65;96631.91;5075505;28;1040;-49
2022/01/13 12:27:59;;;;;;;;;;;;;;;2.50;37.97;96639.38;5074971;28;1985;-49
2022/01/13 12:30:27;;;;;;;;;;;;;;;2.92;37.16;96639.94;5075318;28;1065;-49
2022/01/13 12:32:55;;;;;;;;;;;;;;;2.87;38.26;96634.91;5075375;28;1049;-50
2022/01/13 12:35:21;;;;;;;;;;;;;;;2.52;38.91;96632.25;5075264;28;1204;-49
2022/01/13 12:38:02;;;;;;;;;;;;;;;2.37;38.28;96616.28;5074931;28;1316;-50
2022/01/13 12:40:40;;;;;;;;;;;;;;;2.35;38.17;96611.06;5075121;28;1089;-49
2022/01/13 12:44:19;;;;;;;;;;;;;;;2.36;38.26;96594.31;5075057;28;1877;-49
2022/01/13 12:46:14;;;;;;;;;;;;;;;2.19;37.69;96576.66;5071950;28;1523;-49
2022/01/13 12:48:42;;;;;;;;;;;;;;;2.05;39.01;96565.91;5074799;28;1989;-48
2022/01/13 12:51:12;;;;;;;;;;;;;;;2.14;37.76;96553.16;5075099;28;1094;-49
2022/01/13 12:53:38;;;;;;;;;;;;;;;2.08;38.29;96573.69;5074861;28;1050;-49
2022/01/13 12:56:09;;;;;;;;;;;;;;;1.97;38.95;96579.47;5075047;28;973;-49
2022/01/13 12:58:40;;;;;;;;;;;;;;;1.77;39.25;96584.88;5074489;28;1077;-48
2022/01/13 13:01:09;;;;;;;;;;;;;;;1.71;39.38;96593.91;5074923;28;1051;-49
2022/01/13 13:03:35;;;;;;;;;;;;;;;1.75;40.40;96600.75;5074561;28;1052;-48
2022/01/13 13:06:08;;;;;;;;;;;;;;;1.83;40.19;96598.59;5075084;28;985;-49
2022/01/13 13:08:34;;;;;;;;;;;;;;;1.85;39.58;96596.75;5074627;28;1902;-49
2022/01/13 13:11:01;;;;;;;;;;;;;;;1.80;39.94;96608.44;5074740;28;1076;-49
2022/01/13 13:13:28;;;;;;;;;;;;;;;1.79;39.70;96623.41;5074384;28;845;-49
2022/01/13 13:15:59;;;;;;;;;;;;;;;1.53;40.34;96622.81;5074520;28;1039;-49
2022/01/13 13:18:26;;;;;;;;;;;;;;;1.50;40.00;96622.97;5074274;28;1061;-49
2022/01/13 13:20:53;;;;;;;;;;;;;;;1.46;40.34;96620.53;5074541;28;989;-48
2022/01/13 13:23:24;;;;;;;;;;;;;;;1.38;40.65;96614.75;5074108;28;1119;-49
2022/01/13 13:25:52;;;;;;;;;;;;;;;1.48;40.19;96610.78;5074391;28;1057;-49
2022/01/13 13:28:20;;;;;;;;;;;;;;;1.41;40.68;96606.72;5073843;28;1914;-49